sensor_id;sensor_type;location;lat;lon;timestamp;pressure;altitude;pressure_sealevel;temperature;humidity
14882;BME280;7533;51.278;12.588;2023-03-30T00:01:40;99641.16;;;21.85;60.86
14882;BME280;7533;51.278;12.588;2023-03-30T00:06:45;99615.59;;;21.80;61.10
14882;BME280;7533;51.278;12.588;2023-03-30T00:11:49;99629.56;;;21.74;61.48
14882;BME280;7533;51.278;12.588;2023-03-30T00:16:51;99631.75;;;21.69;61.50
14882;BME280;7533;51.278;12.588;2023-03-30T00:21:56;99603.34;;;21.64;61.67
14882;BME280;7533;51.278;12.588;2023-03-30T00:26:59;99577.66;;;21.60;61.87
14882;BME280;7533;51.278;12.588;2023-03-30T00:32:01;99575.22;;;21.57;62.29
14882;BME280;7533;51.278;12.588;2023-03-30T00:37:06;99552.47;;;21.50;62.36
14882;BME280;7533;51.278;12.588;2023-03-30T00:42:13;99554.56;;;21.47;62.62
14882;BME280;7533;51.278;12.588;2023-03-30T00:47:20;99545.84;;;21.43;62.96
14882;BME280;7533;51.278;12.588;2023-03-30T00:52:25;99564.97;;;21.40;62.98
14882;BME280;7533;51.278;12.588;2023-03-30T00:57:28;99526.66;;;21.36;63.00
14882;BME280;7533;51.278;12.588;2023-03-30T01:02:34;99525.81;;;21.36;63.09
14882;BME280;7533;51.278;12.588;2023-03-30T01:07:42;99515.53;;;21.30;63.36
14882;BME280;7533;51.278;12.588;2023-03-30T01:12:47;99512.94;;;21.28;63.28
14882;BME280;7533;51.278;12.588;2023-03-30T01:18:03;99516.72;;;21.26;63.52
14882;BME280;7533;51.278;12.588;2023-03-30T01:28:43;99521.88;;;21.18;63.86
14882;BME280;7533;51.278;12.588;2023-03-30T01:39:39;99497.31;;;21.11;64.01
14882;BME280;7533;51.278;12.588;2023-03-30T01:44:53;99492.16;;;21.08;64.06
14882;BME280;7533;51.278;12.588;2023-03-30T01:50:02;99495.97;;;21.05;64.14
14882;BME280;7533;51.278;12.588;2023-03-30T01:55:12;99495.34;;;21.02;64.24
14882;BME280;7533;51.278;12.588;2023-03-30T02:00:20;99484.09;;;20.97;64.53
14882;BME280;7533;51.278;12.588;2023-03-30T02:05:25;99471.50;;;20.97;64.52
14882;BME280;7533;51.278;12.588;2023-03-30T02:10:33;99466.25;;;20.96;64.66
14882;BME280;7533;51.278;12.588;2023-03-30T02:15:39;99457.44;;;20.94;64.66
14882;BME280;7533;51.278;12.588;2023-03-30T02:20:43;99433.47;;;20.91;64.76
14882;BME280;7533;51.278;12.588;2023-03-30T02:25:47;99434.59;;;20.88;64.72
14882;BME280;7533;51.278;12.588;2023-03-30T02:30:51;99425.03;;;20.84;65.12
14882;BME280;7533;51.278;12.588;2023-03-30T02:36:08;99423.34;;;20.83;65.04
14882;BME280;7533;51.278;12.588;2023-03-30T02:41:29;99416.34;;;20.80;65.26
14882;BME280;7533;51.278;12.588;2023-03-30T02:46:56;99412.94;;;20.78;65.23
14882;BME280;7533;51.278;12.588;2023-03-30T02:52:09;99402.31;;;20.77;65.30
14882;BME280;7533;51.278;12.588;2023-03-30T02:57:27;99399.63;;;20.77;65.45
14882;BME280;7533;51.278;12.588;2023-03-30T03:02:55;99390.09;;;20.73;65.43
14882;BME280;7533;51.278;12.588;2023-03-30T03:08:03;99398.16;;;20.73;65.51
14882;BME280;7533;51.278;12.588;2023-03-30T03:13:09;99387.53;;;20.71;65.64
14882;BME280;7533;51.278;12.588;2023-03-30T03:18:15;99400.34;;;20.68;65.82
14882;BME280;7533;51.278;12.588;2023-03-30T03:23:19;99384.22;;;20.68;65.90
14882;BME280;7533;51.278;12.588;2023-03-30T03:28:26;99374.47;;;20.67;66.01
14882;BME280;7533;51.278;12.588;2023-03-30T03:33:35;99367.38;;;20.66;65.50
14882;BME280;7533;51.278;12.588;2023-03-30T03:38:47;99371.00;;;20.65;65.50
14882;BME280;7533;51.278;12.588;2023-03-30T03:43:52;99365.53;;;20.66;65.40
14882;BME280;7533;51.278;12.588;2023-03-30T03:48:55;99361.25;;;20.64;65.23
14882;BME280;7533;51.278;12.588;2023-03-30T03:53:59;99387.41;;;20.62;65.07
14882;BME280;7533;51.278;12.588;2023-03-30T03:59:03;99394.75;;;20.59;65.28
14882;BME280;7533;51.278;12.588;2023-03-30T04:04:06;99374.19;;;20.58;65.14
14882;BME280;7533;51.278;12.588;2023-03-30T04:09:09;99361.50;;;20.60;65.11
14882;BME280;7533;51.278;12.588;2023-03-30T04:14:44;99382.25;;;20.58;64.90
14882;BME280;7533;51.278;12.588;2023-03-30T04:20:19;99377.88;;;20.57;64.92
14882;BME280;7533;51.278;12.588;2023-03-30T04:25:42;99368.22;;;20.55;64.93
14882;BME280;7533;51.278;12.588;2023-03-30T04:31:16;99360.28;;;20.53;64.84
14882;BME280;7533;51.278;12.588;2023-03-30T04:36:38;99354.16;;;20.51;64.71
14882;BME280;7533;51.278;12.588;2023-03-30T04:42:14;99353.31;;;20.51;64.85
14882;BME280;7533;51.278;12.588;2023-03-30T04:47:42;99349.78;;;20.50;64.88
14882;BME280;7533;51.278;12.588;2023-03-30T04:53:03;99348.06;;;20.49;64.74
14882;BME280;7533;51.278;12.588;2023-03-30T04:58:32;99345.38;;;20.49;64.78
14882;BME280;7533;51.278;12.588;2023-03-30T05:03:55;99333.03;;;20.47;64.77
14882;BME280;7533;51.278;12.588;2023-03-30T05:09:12;99326.81;;;20.46;64.61
14882;BME280;7533;51.278;12.588;2023-03-30T05:14:33;99347.56;;;20.44;64.71
14882;BME280;7533;51.278;12.588;2023-03-30T05:19:57;99349.38;;;20.44;64.85
14882;BME280;7533;51.278;12.588;2023-03-30T05:25:14;99347.78;;;20.41;64.95
14882;BME280;7533;51.278;12.588;2023-03-30T05:30:27;99343.25;;;20.42;64.81
14882;BME280;7533;51.278;12.588;2023-03-30T05:35:50;99344.25;;;20.41;64.87
14882;BME280;7533;51.278;12.588;2023-03-30T05:41:06;99345.22;;;20.40;64.85
14882;BME280;7533;51.278;12.588;2023-03-30T05:46:25;99354.13;;;20.40;64.76
14882;BME280;7533;51.278;12.588;2023-03-30T05:51:49;99340.84;;;20.39;64.81
14882;BME280;7533;51.278;12.588;2023-03-30T05:57:15;99341.69;;;20.39;64.67
14882;BME280;7533;51.278;12.588;2023-03-30T06:02:51;99344.38;;;20.39;64.79
14882;BME280;7533;51.278;12.588;2023-03-30T06:07:58;99318.34;;;20.40;64.86
14882;BME280;7533;51.278;12.588;2023-03-30T06:13:03;99312.25;;;20.38;64.86
14882;BME280;7533;51.278;12.588;2023-03-30T06:18:15;99293.53;;;20.36;64.86
14882;BME280;7533;51.278;12.588;2023-03-30T06:23:27;99289.03;;;20.37;64.78
14882;BME280;7533;51.278;12.588;2023-03-30T06:28:34;99275.47;;;20.38;64.71
14882;BME280;7533;51.278;12.588;2023-03-30T06:33:39;99268.13;;;20.40;64.49
14882;BME280;7533;51.278;12.588;2023-03-30T06:38:45;99277.06;;;20.41;64.54
14882;BME280;7533;51.278;12.588;2023-03-30T06:43:51;99282.28;;;20.42;64.37
14882;BME280;7533;51.278;12.588;2023-03-30T06:48:55;99275.97;;;20.43;64.39
14882;BME280;7533;51.278;12.588;2023-03-30T06:54:17;99275.13;;;20.43;64.42
14882;BME280;7533;51.278;12.588;2023-03-30T06:59:28;99260.78;;;20.42;64.22
14882;BME280;7533;51.278;12.588;2023-03-30T07:04:53;99253.47;;;20.44;63.62
14882;BME280;7533;51.278;12.588;2023-03-30T07:10:07;99268.88;;;20.20;59.01
14882;BME280;7533;51.278;12.588;2023-03-30T07:15:12;99245.81;;;20.17;56.97
14882;BME280;7533;51.278;12.588;2023-03-30T07:20:15;99249.34;;;19.84;57.30
14882;BME280;7533;51.278;12.588;2023-03-30T07:25:52;99247.53;;;20.07;57.08
14882;BME280;7533;51.278;12.588;2023-03-30T07:31:03;99252.53;;;20.12;57.23
14882;BME280;7533;51.278;12.588;2023-03-30T07:36:08;99263.28;;;20.12;57.66
14882;BME280;7533;51.278;12.588;2023-03-30T07:41:14;99261.44;;;19.90;58.18
14882;BME280;7533;51.278;12.588;2023-03-30T07:46:22;99249.22;;;19.86;58.03
14882;BME280;7533;51.278;12.588;2023-03-30T07:51:28;99258.38;;;19.83;58.45
14882;BME280;7533;51.278;12.588;2023-03-30T07:56:42;99257.53;;;19.83;58.56
14882;BME280;7533;51.278;12.588;2023-03-30T08:01:46;99266.06;;;19.76;58.39
14882;BME280;7533;51.278;12.588;2023-03-30T08:07:07;99266.81;;;19.78;58.28
14882;BME280;7533;51.278;12.588;2023-03-30T08:12:12;99276.84;;;20.10;58.72
14882;BME280;7533;51.278;12.588;2023-03-30T08:17:15;99279.16;;;20.26;58.94
14882;BME280;7533;51.278;12.588;2023-03-30T08:22:19;99285.47;;;20.36;59.15
14882;BME280;7533;51.278;12.588;2023-03-30T08:27:24;99292.81;;;20.45;59.18
14882;BME280;7533;51.278;12.588;2023-03-30T08:32:27;99295.88;;;20.52;59.46
14882;BME280;7533;51.278;12.588;2023-03-30T08:37:30;99312.50;;;20.57;59.56
14882;BME280;7533;51.278;12.588;2023-03-30T08:43:08;99319.34;;;20.61;59.61
14882;BME280;7533;51.278;12.588;2023-03-30T08:48:16;99309.19;;;20.65;59.91
14882;BME280;7533;51.278;12.588;2023-03-30T08:53:20;99318.13;;;20.65;59.96
14882;BME280;7533;51.278;12.588;2023-03-30T08:58:30;99310.78;;;20.67;60.19
14882;BME280;7533;51.278;12.588;2023-03-30T09:03:40;99316.88;;;20.69;60.18
14882;BME280;7533;51.278;12.588;2023-03-30T09:08:46;99325.78;;;20.70;60.46
14882;BME280;7533;51.278;12.588;2023-03-30T09:13:51;99320.19;;;20.73;60.66
14882;BME280;7533;51.278;12.588;2023-03-30T09:18:57;99319.00;;;20.54;60.09
14882;BME280;7533;51.278;12.588;2023-03-30T09:24:10;99309.94;;;20.67;61.01
14882;BME280;7533;51.278;12.588;2023-03-30T09:29:17;99303.34;;;20.71;61.09
14882;BME280;7533;51.278;12.588;2023-03-30T09:34:24;99295.97;;;20.73;61.16
14882;BME280;7533;51.278;12.588;2023-03-30T09:39:29;99311.66;;;20.56;60.70
14882;BME280;7533;51.278;12.588;2023-03-30T09:44:38;99321.28;;;20.70;61.52
14882;BME280;7533;51.278;12.588;2023-03-30T09:49:44;99326.41;;;20.73;61.36
14882;BME280;7533;51.278;12.588;2023-03-30T09:54:47;99311.13;;;20.74;61.67
14882;BME280;7533;51.278;12.588;2023-03-30T09:59:51;99322.59;;;20.76;61.76
14882;BME280;7533;51.278;12.588;2023-03-30T10:04:59;99313.59;;;20.77;61.94
14882;BME280;7533;51.278;12.588;2023-03-30T10:10:13;99312.59;;;20.78;61.87
14882;BME280;7533;51.278;12.588;2023-03-30T10:15:21;99308.25;;;20.54;62.24
14882;BME280;7533;51.278;12.588;2023-03-30T10:20:27;99300.19;;;20.54;61.14
14882;BME280;7533;51.278;12.588;2023-03-30T10:25:32;99294.41;;;20.48;61.18
14882;BME280;7533;51.278;12.588;2023-03-30T10:30:36;99299.31;;;20.43;61.19
14882;BME280;7533;51.278;12.588;2023-03-30T10:35:39;99287.66;;;20.42;61.25
14882;BME280;7533;51.278;12.588;2023-03-30T10:40:44;99294.03;;;20.30;61.48
14882;BME280;7533;51.278;12.588;2023-03-30T10:45:50;99291.00;;;20.23;61.51
14882;BME280;7533;51.278;12.588;2023-03-30T10:50:58;99302.22;;;20.17;61.93
14882;BME280;7533;51.278;12.588;2023-03-30T10:56:11;99284.41;;;20.16;61.85
14882;BME280;7533;51.278;12.588;2023-03-30T11:01:22;99264.75;;;20.16;62.02
14882;BME280;7533;51.278;12.588;2023-03-30T11:06:30;99269.75;;;20.09;61.88
14882;BME280;7533;51.278;12.588;2023-03-30T11:11:39;99260.47;;;20.13;61.82
14882;BME280;7533;51.278;12.588;2023-03-30T11:16:47;99254.50;;;20.10;61.78
14882;BME280;7533;51.278;12.588;2023-03-30T11:22:00;99239.94;;;20.12;61.89
14882;BME280;7533;51.278;12.588;2023-03-30T11:27:09;99244.72;;;20.08;61.83
14882;BME280;7533;51.278;12.588;2023-03-30T11:32:24;99228.84;;;20.05;62.63
14882;BME280;7533;51.278;12.588;2023-03-30T11:37:34;99218.59;;;20.11;62.86
14882;BME280;7533;51.278;12.588;2023-03-30T11:42:39;99216.91;;;20.10;62.95
14882;BME280;7533;51.278;12.588;2023-03-30T11:48:01;99215.53;;;20.26;62.35
14882;BME280;7533;51.278;12.588;2023-03-30T11:53:17;99222.75;;;20.26;62.68
14882;BME280;7533;51.278;12.588;2023-03-30T11:58:33;99204.16;;;20.34;62.08
14882;BME280;7533;51.278;12.588;2023-03-30T12:03:40;99192.53;;;20.33;62.17
14882;BME280;7533;51.278;12.588;2023-03-30T12:09:03;99149.09;;;20.17;62.68
14882;BME280;7533;51.278;12.588;2023-03-30T12:14:31;99154.66;;;20.37;62.80
14882;BME280;7533;51.278;12.588;2023-03-30T12:19:41;99144.13;;;20.56;62.23
14882;BME280;7533;51.278;12.588;2023-03-30T12:25:02;99140.69;;;20.65;61.80
14882;BME280;7533;51.278;12.588;2023-03-30T12:30:13;99115.13;;;20.71;61.88
14882;BME280;7533;51.278;12.588;2023-03-30T12:35:49;99135.97;;;20.78;61.72
14882;BME280;7533;51.278;12.588;2023-03-30T12:41:02;99121.88;;;20.86;61.78
14882;BME280;7533;51.278;12.588;2023-03-30T12:46:10;99110.47;;;20.94;61.59
14882;BME280;7533;51.278;12.588;2023-03-30T12:51:33;99107.13;;;21.01;61.63
14882;BME280;7533;51.278;12.588;2023-03-30T12:56:48;99110.97;;;21.08;61.21
14882;BME280;7533;51.278;12.588;2023-03-30T13:02:32;99110.56;;;21.13;61.05
14882;BME280;7533;51.278;12.588;2023-03-30T13:07:42;99129.28;;;21.14;61.06
14882;BME280;7533;51.278;12.588;2023-03-30T13:12:47;99125.59;;;21.16;61.23
14882;BME280;7533;51.278;12.588;2023-03-30T13:17:56;99119.44;;;21.25;61.58
14882;BME280;7533;51.278;12.588;2023-03-30T13:23:22;99095.69;;;21.30;61.75
14882;BME280;7533;51.278;12.588;2023-03-30T13:28:53;99093.72;;;21.32;61.88
14882;BME280;7533;51.278;12.588;2023-03-30T13:34:01;99099.94;;;21.32;61.83
14882;BME280;7533;51.278;12.588;2023-03-30T13:39:12;99112.28;;;21.35;61.89
14882;BME280;7533;51.278;12.588;2023-03-30T13:44:32;99111.31;;;21.36;62.12
14882;BME280;7533;51.278;12.588;2023-03-30T13:49:46;99109.91;;;21.42;61.84
14882;BME280;7533;51.278;12.588;2023-03-30T13:54:53;99085.97;;;21.79;61.46
14882;BME280;7533;51.278;12.588;2023-03-30T14:00:02;99101.66;;;21.64;58.68
14882;BME280;7533;51.278;12.588;2023-03-30T14:05:13;99095.41;;;21.63;59.97
14882;BME280;7533;51.278;12.588;2023-03-30T14:10:19;99090.47;;;21.69;60.05
14882;BME280;7533;51.278;12.588;2023-03-30T14:15:26;99091.91;;;21.73;60.19
14882;BME280;7533;51.278;12.588;2023-03-30T14:20:43;99112.06;;;21.78;60.14
14882;BME280;7533;51.278;12.588;2023-03-30T14:25:52;99157.50;;;21.72;60.18
14882;BME280;7533;51.278;12.588;2023-03-30T14:30:56;99190.81;;;21.71;60.45
14882;BME280;7533;51.278;12.588;2023-03-30T14:36:00;99209.66;;;21.71;60.48
14882;BME280;7533;51.278;12.588;2023-03-30T14:41:07;99212.34;;;21.71;60.55
14882;BME280;7533;51.278;12.588;2023-03-30T14:46:11;99220.72;;;21.68;60.65
14882;BME280;7533;51.278;12.588;2023-03-30T14:51:23;99217.28;;;21.65;60.83
14882;BME280;7533;51.278;12.588;2023-03-30T14:56:29;99238.25;;;21.62;60.92
14882;BME280;7533;51.278;12.588;2023-03-30T15:01:33;99234.13;;;21.58;61.13
14882;BME280;7533;51.278;12.588;2023-03-30T15:06:36;99211.66;;;21.48;61.43
14882;BME280;7533;51.278;12.588;2023-03-30T15:11:42;99182.44;;;21.43;61.72
14882;BME280;7533;51.278;12.588;2023-03-30T15:16:48;99206.09;;;21.39;61.94
14882;BME280;7533;51.278;12.588;2023-03-30T15:21:56;99208.91;;;21.38;62.13
14882;BME280;7533;51.278;12.588;2023-03-30T15:27:04;99208.19;;;21.36;62.23
14882;BME280;7533;51.278;12.588;2023-03-30T15:32:13;99213.72;;;21.34;62.24
14882;BME280;7533;51.278;12.588;2023-03-30T15:37:21;99235.38;;;21.33;62.61
14882;BME280;7533;51.278;12.588;2023-03-30T15:42:28;99222.88;;;21.32;62.58
14882;BME280;7533;51.278;12.588;2023-03-30T15:47:32;99225.81;;;21.29;62.93
14882;BME280;7533;51.278;12.588;2023-03-30T15:52:37;99238.81;;;21.24;63.07
14882;BME280;7533;51.278;12.588;2023-03-30T15:57:47;99239.19;;;21.30;64.28
14882;BME280;7533;51.278;12.588;2023-03-30T16:02:54;99238.81;;;21.24;65.36
14882;BME280;7533;51.278;12.588;2023-03-30T16:07:59;99237.13;;;21.23;65.49
14882;BME280;7533;51.278;12.588;2023-03-30T16:13:03;99233.34;;;21.14;65.76
14882;BME280;7533;51.278;12.588;2023-03-30T16:18:09;99225.03;;;21.17;66.04
14882;BME280;7533;51.278;12.588;2023-03-30T16:23:12;99230.72;;;21.35;65.85
14882;BME280;7533;51.278;12.588;2023-03-30T16:28:16;99224.09;;;22.21;63.59
14882;BME280;7533;51.278;12.588;2023-03-30T16:33:19;99223.56;;;21.97;62.51
14882;BME280;7533;51.278;12.588;2023-03-30T16:38:22;99232.16;;;21.90;62.69
14882;BME280;7533;51.278;12.588;2023-03-30T16:43:26;99228.78;;;21.98;62.49
14882;BME280;7533;51.278;12.588;2023-03-30T16:48:29;99239.75;;;22.06;62.15
14882;BME280;7533;51.278;12.588;2023-03-30T16:53:32;99240.47;;;22.08;62.15
14882;BME280;7533;51.278;12.588;2023-03-30T16:58:37;99241.53;;;22.17;61.79
14882;BME280;7533;51.278;12.588;2023-03-30T17:03:40;99246.94;;;22.17;61.77
14882;BME280;7533;51.278;12.588;2023-03-30T17:08:43;99244.50;;;22.14;61.86
14882;BME280;7533;51.278;12.588;2023-03-30T17:13:47;99250.63;;;22.26;61.47
14882;BME280;7533;51.278;12.588;2023-03-30T17:18:51;99259.00;;;22.23;61.50
14882;BME280;7533;51.278;12.588;2023-03-30T17:23:54;99257.63;;;22.07;62.15
14882;BME280;7533;51.278;12.588;2023-03-30T17:28:59;99268.66;;;22.04;62.26
14882;BME280;7533;51.278;12.588;2023-03-30T17:34:02;99282.22;;;22.14;61.71
14882;BME280;7533;51.278;12.588;2023-03-30T17:39:10;99282.53;;;22.21;61.69
14882;BME280;7533;51.278;12.588;2023-03-30T17:44:14;99281.00;;;22.28;61.47
14882;BME280;7533;51.278;12.588;2023-03-30T17:49:17;99286.22;;;22.20;61.53
14882;BME280;7533;51.278;12.588;2023-03-30T17:54:20;99287.75;;;22.12;61.59
14882;BME280;7533;51.278;12.588;2023-03-30T17:59:25;99295.22;;;22.30;60.97
14882;BME280;7533;51.278;12.588;2023-03-30T18:04:28;99294.00;;;22.13;61.43
14882;BME280;7533;51.278;12.588;2023-03-30T18:09:31;99304.16;;;22.09;61.38
14882;BME280;7533;51.278;12.588;2023-03-30T18:14:36;99306.00;;;22.30;61.09
14882;BME280;7533;51.278;12.588;2023-03-30T18:19:39;99307.59;;;22.42;62.39
14882;BME280;7533;51.278;12.588;2023-03-30T18:24:41;99310.44;;;22.40;62.76
14882;BME280;7533;51.278;12.588;2023-03-30T18:29:45;99304.91;;;22.42;62.69
14882;BME280;7533;51.278;12.588;2023-03-30T18:34:48;99305.34;;;22.47;62.47
14882;BME280;7533;51.278;12.588;2023-03-30T18:39:51;99309.44;;;22.41;62.67
14882;BME280;7533;51.278;12.588;2023-03-30T18:44:55;99315.13;;;22.48;62.66
14882;BME280;7533;51.278;12.588;2023-03-30T18:49:58;99313.44;;;22.47;62.61
14882;BME280;7533;51.278;12.588;2023-03-30T18:55:01;99311.88;;;22.54;62.43
14882;BME280;7533;51.278;12.588;2023-03-30T19:00:14;99319.13;;;22.54;62.33
14882;BME280;7533;51.278;12.588;2023-03-30T19:05:21;99319.56;;;22.59;62.13
14882;BME280;7533;51.278;12.588;2023-03-30T19:10:27;99321.56;;;22.57;62.01
14882;BME280;7533;51.278;12.588;2023-03-30T19:15:34;99327.91;;;22.56;62.15
14882;BME280;7533;51.278;12.588;2023-03-30T19:20:38;99333.50;;;22.64;61.90
14882;BME280;7533;51.278;12.588;2023-03-30T19:25:42;99343.69;;;22.51;62.13
14882;BME280;7533;51.278;12.588;2023-03-30T19:30:47;99348.69;;;22.65;61.81
14882;BME280;7533;51.278;12.588;2023-03-30T19:35:50;99340.44;;;22.66;61.70
14882;BME280;7533;51.278;12.588;2023-03-30T19:40:58;99345.53;;;22.60;61.84
14882;BME280;7533;51.278;12.588;2023-03-30T19:46:02;99352.25;;;22.65;61.74
14882;BME280;7533;51.278;12.588;2023-03-30T19:51:06;99359.22;;;22.78;61.29
14882;BME280;7533;51.278;12.588;2023-03-30T19:56:09;99358.78;;;22.73;61.25
14882;BME280;7533;51.278;12.588;2023-03-30T20:01:14;99357.81;;;22.74;60.93
14882;BME280;7533;51.278;12.588;2023-03-30T20:06:17;99370.56;;;22.71;61.41
14882;BME280;7533;51.278;12.588;2023-03-30T20:11:20;99370.41;;;22.63;61.54
14882;BME280;7533;51.278;12.588;2023-03-30T20:16:25;99368.59;;;22.74;61.28
14882;BME280;7533;51.278;12.588;2023-03-30T20:21:31;99366.75;;;22.74;60.91
14882;BME280;7533;51.278;12.588;2023-03-30T20:26:34;99372.88;;;22.76;61.22
14882;BME280;7533;51.278;12.588;2023-03-30T20:31:38;99373.16;;;22.73;60.90
14882;BME280;7533;51.278;12.588;2023-03-30T20:36:41;99372.28;;;22.73;61.13
14882;BME280;7533;51.278;12.588;2023-03-30T20:41:45;99371.53;;;22.91;60.68
14882;BME280;7533;51.278;12.588;2023-03-30T20:46:49;99371.00;;;22.77;61.04
14882;BME280;7533;51.278;12.588;2023-03-30T20:51:59;99388.47;;;22.73;61.04
14882;BME280;7533;51.278;12.588;2023-03-30T20:57:02;99387.59;;;22.72;61.11
14882;BME280;7533;51.278;12.588;2023-03-30T21:02:09;99381.19;;;22.63;61.40
14882;BME280;7533;51.278;12.588;2023-03-30T21:07:12;99383.34;;;22.69;61.28
14882;BME280;7533;51.278;12.588;2023-03-30T21:12:16;99372.31;;;22.82;61.01
14882;BME280;7533;51.278;12.588;2023-03-30T21:17:20;99364.44;;;22.90;60.84
14882;BME280;7533;51.278;12.588;2023-03-30T21:22:23;99359.34;;;22.97;60.55
14882;BME280;7533;51.278;12.588;2023-03-30T21:27:26;99373.13;;;23.04;60.55
14882;BME280;7533;51.278;12.588;2023-03-30T21:32:31;99367.56;;;23.05;60.38
14882;BME280;7533;51.278;12.588;2023-03-30T21:37:33;99371.84;;;23.08;60.32
14882;BME280;7533;51.278;12.588;2023-03-30T21:42:36;99355.50;;;23.09;60.41
14882;BME280;7533;51.278;12.588;2023-03-30T21:47:40;99346.41;;;23.10;60.06
14882;BME280;7533;51.278;12.588;2023-03-30T21:52:43;99343.88;;;23.09;60.12
14882;BME280;7533;51.278;12.588;2023-03-30T21:57:46;99351.25;;;23.07;60.25
14882;BME280;7533;51.278;12.588;2023-03-30T22:02:50;99353.22;;;23.05;60.34
14882;BME280;7533;51.278;12.588;2023-03-30T22:07:53;99345.28;;;23.03;60.24
14882;BME280;7533;51.278;12.588;2023-03-30T22:12:56;99354.63;;;22.99;60.24
14882;BME280;7533;51.278;12.588;2023-03-30T22:18:00;99354.78;;;22.98;60.33
14882;BME280;7533;51.278;12.588;2023-03-30T22:23:04;99349.53;;;22.96;60.43
14882;BME280;7533;51.278;12.588;2023-03-30T22:28:08;99346.25;;;22.92;60.58
14882;BME280;7533;51.278;12.588;2023-03-30T22:33:14;99326.66;;;22.90;60.68
14882;BME280;7533;51.278;12.588;2023-03-30T22:38:17;99312.69;;;22.85;60.85
14882;BME280;7533;51.278;12.588;2023-03-30T22:43:20;99308.72;;;22.80;61.09
14882;BME280;7533;51.278;12.588;2023-03-30T22:48:24;99302.72;;;22.76;61.33
14882;BME280;7533;51.278;12.588;2023-03-30T22:53:27;99300.31;;;22.73;61.68
14882;BME280;7533;51.278;12.588;2023-03-30T22:58:30;99302.13;;;22.63;61.85
14882;BME280;7533;51.278;12.588;2023-03-30T23:03:34;99304.25;;;22.59;62.09
14882;BME280;7533;51.278;12.588;2023-03-30T23:08:37;99292.44;;;22.51;62.10
14882;BME280;7533;51.278;12.588;2023-03-30T23:13:40;99292.13;;;22.44;62.29
14882;BME280;7533;51.278;12.588;2023-03-30T23:18:45;99295.38;;;22.38;62.52
14882;BME280;7533;51.278;12.588;2023-03-30T23:23:48;99289.53;;;22.33;62.64
14882;BME280;7533;51.278;12.588;2023-03-30T23:28:51;99293.16;;;22.22;62.81
14882;BME280;7533;51.278;12.588;2023-03-30T23:33:55;99296.28;;;22.17;62.98
14882;BME280;7533;51.278;12.588;2023-03-30T23:38:58;99293.59;;;22.17;62.99
14882;BME280;7533;51.278;12.588;2023-03-30T23:44:01;99287.00;;;22.10;63.16
14882;BME280;7533;51.278;12.588;2023-03-30T23:49:05;99282.88;;;22.06;63.40
14882;BME280;7533;51.278;12.588;2023-03-30T23:54:08;99278.28;;;21.97;63.69
14882;BME280;7533;51.278;12.588;2023-03-30T23:59:11;99273.44;;;21.91;63.94
